Decoded Metar for KSTC (ST. CLOUD in MN, USA) (IATA:STC) | Meteo·Mobile Aviation Weather
aviador You're here:

KSTC Decoded Metar

ST. CLOUD in MN, USA
Report Time2019-01-22 00:53:00
UTC Time2019-01-22 01:07:21
Flight Rules vfr VFR
Wind110° at 10 Gusting to 20 kt
W.Decomp.*RWY 13: 9.2 kt HW 3.9 kt LCW
RWY 05: 5.4 kt HW 8.4 kt RCW
W.Rank110° ranks 20
Current wind is above 110° avg. (5.7)
Visibility9999 m
Phenomena:N/A
Clouds:Scattered 031 Hf
Overcast 042 Hf
Expected CloudBase > 2,000 ft AGL from Temp-Dew spread
Ceiling4,200 ft
Temp-11°C (ISA -24)
Dew Point-16°C (67% RH)
AAT-18.0°C
QNH1019 hPa
Density Alt-2,142 ft
Elevation1,030 ft
Report Wrong Elevation
Raw Report
KSTC 220053Z 11010G20KT 10SM SCT031 OVC042 M11/M16 A3009 RMK AO2
SLP222 T11061156=

Extra information for KSTC:More info

Metar Taf Metar & Taf Last 4 Metars F.Rules Stats Wind Profile Meteogram Temp Stats Airport Information Weather charts Add Link Nearby VenuesMetar ALERT Operation Metar Decoded Social comments

AIRNAV info for KSTC